sensor_id;sensor_type;location;lat;lon;timestamp;temperature;humidity
6110;DHT22;3085;49.444;11.054;2023-05-16T00:01:07;13.00;99.90
6110;DHT22;3085;49.444;11.054;2023-05-16T00:03:34;12.90;99.90
6110;DHT22;3085;49.444;11.054;2023-05-16T00:06:02;13.00;99.90
6110;DHT22;3085;49.444;11.054;2023-05-16T00:08:29;13.00;99.90
6110;DHT22;3085;49.444;11.054;2023-05-16T00:10:56;12.90;99.90
6110;DHT22;3085;49.444;11.054;2023-05-16T00:13:23;13.20;99.90
6110;DHT22;3085;49.444;11.054;2023-05-16T00:15:50;13.10;99.90
6110;DHT22;3085;49.444;11.054;2023-05-16T00:18:19;13.20;99.90
6110;DHT22;3085;49.444;11.054;2023-05-16T00:20:46;13.20;99.90
6110;DHT22;3085;49.444;11.054;2023-05-16T00:23:13;13.20;99.90
6110;DHT22;3085;49.444;11.054;2023-05-16T00:25:41;13.10;99.90
6110;DHT22;3085;49.444;11.054;2023-05-16T00:28:08;13.10;99.90
6110;DHT22;3085;49.444;11.054;2023-05-16T00:30:35;13.10;99.90
6110;DHT22;3085;49.444;11.054;2023-05-16T00:33:02;13.00;99.90
6110;DHT22;3085;49.444;11.054;2023-05-16T00:35:30;12.90;99.90
6110;DHT22;3085;49.444;11.054;2023-05-16T00:37:57;13.10;99.90
6110;DHT22;3085;49.444;11.054;2023-05-16T00:40:23;13.00;99.90
6110;DHT22;3085;49.444;11.054;2023-05-16T00:42:50;13.00;99.90
6110;DHT22;3085;49.444;11.054;2023-05-16T00:45:18;13.00;99.90
6110;DHT22;3085;49.444;11.054;2023-05-16T00:47:44;13.00;99.90
6110;DHT22;3085;49.444;11.054;2023-05-16T00:50:11;13.00;99.90
6110;DHT22;3085;49.444;11.054;2023-05-16T00:52:40;12.90;99.90
6110;DHT22;3085;49.444;11.054;2023-05-16T00:55:07;12.80;99.90
6110;DHT22;3085;49.444;11.054;2023-05-16T00:57:35;12.80;99.90
6110;DHT22;3085;49.444;11.054;2023-05-16T01:00:02;12.70;99.90
6110;DHT22;3085;49.444;11.054;2023-05-16T01:02:33;12.70;99.90
6110;DHT22;3085;49.444;11.054;2023-05-16T01:05:03;12.80;99.90
6110;DHT22;3085;49.444;11.054;2023-05-16T01:07:31;12.80;99.90
6110;DHT22;3085;49.444;11.054;2023-05-16T01:10:00;12.90;99.90
6110;DHT22;3085;49.444;11.054;2023-05-16T01:12:32;12.90;99.90
6110;DHT22;3085;49.444;11.054;2023-05-16T01:15:07;12.90;99.90
6110;DHT22;3085;49.444;11.054;2023-05-16T01:17:42;12.90;99.90
6110;DHT22;3085;49.444;11.054;2023-05-16T01:20:20;12.90;99.90
6110;DHT22;3085;49.444;11.054;2023-05-16T01:23:03;12.90;99.90
6110;DHT22;3085;49.444;11.054;2023-05-16T01:25:44;13.00;99.90
6110;DHT22;3085;49.444;11.054;2023-05-16T01:28:15;13.00;99.90
6110;DHT22;3085;49.444;11.054;2023-05-16T01:30:42;13.00;99.90
6110;DHT22;3085;49.444;11.054;2023-05-16T01:33:09;13.00;99.90
6110;DHT22;3085;49.444;11.054;2023-05-16T01:35:41;13.00;99.90
6110;DHT22;3085;49.444;11.054;2023-05-16T01:38:12;13.10;99.90
6110;DHT22;3085;49.444;11.054;2023-05-16T01:40:54;13.00;99.90
6110;DHT22;3085;49.444;11.054;2023-05-16T01:43:29;13.10;99.90
6110;DHT22;3085;49.444;11.054;2023-05-16T01:46:02;13.00;99.90
6110;DHT22;3085;49.444;11.054;2023-05-16T01:48:36;12.90;99.90
6110;DHT22;3085;49.444;11.054;2023-05-16T01:51:05;12.90;99.90
6110;DHT22;3085;49.444;11.054;2023-05-16T01:53:36;12.90;99.90
6110;DHT22;3085;49.444;11.054;2023-05-16T01:56:05;12.70;99.90
6110;DHT22;3085;49.444;11.054;2023-05-16T01:58:36;12.70;99.90
6110;DHT22;3085;49.444;11.054;2023-05-16T02:01:04;12.60;99.90
6110;DHT22;3085;49.444;11.054;2023-05-16T02:03:32;12.60;99.90
6110;DHT22;3085;49.444;11.054;2023-05-16T02:05:58;12.50;99.90
6110;DHT22;3085;49.444;11.054;2023-05-16T02:08:27;12.50;99.90
6110;DHT22;3085;49.444;11.054;2023-05-16T02:10:54;12.40;99.90
6110;DHT22;3085;49.444;11.054;2023-05-16T02:13:20;12.40;99.90
6110;DHT22;3085;49.444;11.054;2023-05-16T02:15:49;12.30;99.90
6110;DHT22;3085;49.444;11.054;2023-05-16T02:18:15;12.30;99.90
6110;DHT22;3085;49.444;11.054;2023-05-16T02:20:43;12.40;99.90
6110;DHT22;3085;49.444;11.054;2023-05-16T02:23:10;12.30;99.90
6110;DHT22;3085;49.444;11.054;2023-05-16T02:25:36;12.30;99.90
6110;DHT22;3085;49.444;11.054;2023-05-16T02:28:03;12.30;99.90
6110;DHT22;3085;49.444;11.054;2023-05-16T02:30:31;12.30;99.90
6110;DHT22;3085;49.444;11.054;2023-05-16T02:32:59;12.20;99.90
6110;DHT22;3085;49.444;11.054;2023-05-16T02:35:26;12.10;99.90
6110;DHT22;3085;49.444;11.054;2023-05-16T02:37:52;12.10;99.90
6110;DHT22;3085;49.444;11.054;2023-05-16T02:40:20;12.10;99.90
6110;DHT22;3085;49.444;11.054;2023-05-16T02:42:46;12.00;99.90
6110;DHT22;3085;49.444;11.054;2023-05-16T02:45:13;12.00;99.90
6110;DHT22;3085;49.444;11.054;2023-05-16T02:47:40;12.00;99.90
6110;DHT22;3085;49.444;11.054;2023-05-16T02:50:09;12.10;99.90
6110;DHT22;3085;49.444;11.054;2023-05-16T02:52:36;12.10;99.90
6110;DHT22;3085;49.444;11.054;2023-05-16T02:55:03;12.20;99.90
6110;DHT22;3085;49.444;11.054;2023-05-16T02:57:30;12.20;99.90
6110;DHT22;3085;49.444;11.054;2023-05-16T02:59:57;12.30;99.90
6110;DHT22;3085;49.444;11.054;2023-05-16T03:02:24;12.40;99.90
6110;DHT22;3085;49.444;11.054;2023-05-16T03:04:51;12.40;99.90
6110;DHT22;3085;49.444;11.054;2023-05-16T03:07:19;12.40;99.90
6110;DHT22;3085;49.444;11.054;2023-05-16T03:09:46;12.40;99.90
6110;DHT22;3085;49.444;11.054;2023-05-16T03:12:15;12.50;99.90
6110;DHT22;3085;49.444;11.054;2023-05-16T03:14:42;12.40;99.90
6110;DHT22;3085;49.444;11.054;2023-05-16T03:17:09;12.40;99.90
6110;DHT22;3085;49.444;11.054;2023-05-16T03:19:36;12.50;99.90
6110;DHT22;3085;49.444;11.054;2023-05-16T03:22:03;12.40;99.90
6110;DHT22;3085;49.444;11.054;2023-05-16T03:24:31;12.40;99.90
6110;DHT22;3085;49.444;11.054;2023-05-16T03:26:58;12.30;99.90
6110;DHT22;3085;49.444;11.054;2023-05-16T03:29:25;12.20;99.90
6110;DHT22;3085;49.444;11.054;2023-05-16T03:31:52;12.20;99.90
6110;DHT22;3085;49.444;11.054;2023-05-16T03:34:19;12.10;99.90
6110;DHT22;3085;49.444;11.054;2023-05-16T03:36:47;13.20;99.90
6110;DHT22;3085;49.444;11.054;2023-05-16T03:39:14;12.20;99.90
6110;DHT22;3085;49.444;11.054;2023-05-16T03:41:42;12.30;99.90
6110;DHT22;3085;49.444;11.054;2023-05-16T03:44:09;12.30;99.90
6110;DHT22;3085;49.444;11.054;2023-05-16T03:46:36;12.30;99.90
6110;DHT22;3085;49.444;11.054;2023-05-16T03:49:03;12.30;99.90
6110;DHT22;3085;49.444;11.054;2023-05-16T03:51:30;12.20;99.90
6110;DHT22;3085;49.444;11.054;2023-05-16T03:53:57;12.20;99.90
6110;DHT22;3085;49.444;11.054;2023-05-16T03:56:24;12.10;99.90
6110;DHT22;3085;49.444;11.054;2023-05-16T03:58:52;12.10;99.90
6110;DHT22;3085;49.444;11.054;2023-05-16T04:01:19;12.10;99.90
6110;DHT22;3085;49.444;11.054;2023-05-16T04:03:45;12.10;99.90
6110;DHT22;3085;49.444;11.054;2023-05-16T04:06:12;12.00;99.90
6110;DHT22;3085;49.444;11.054;2023-05-16T04:08:39;11.90;99.90
6110;DHT22;3085;49.444;11.054;2023-05-16T04:11:08;11.90;99.90
6110;DHT22;3085;49.444;11.054;2023-05-16T04:13:35;11.30;99.90
6110;DHT22;3085;49.444;11.054;2023-05-16T04:16:04;11.70;99.90
6110;DHT22;3085;49.444;11.054;2023-05-16T04:18:30;11.70;99.90
6110;DHT22;3085;49.444;11.054;2023-05-16T04:20:57;11.80;99.90
6110;DHT22;3085;49.444;11.054;2023-05-16T04:23:24;11.70;99.90
6110;DHT22;3085;49.444;11.054;2023-05-16T04:25:51;11.70;99.90
6110;DHT22;3085;49.444;11.054;2023-05-16T04:28:18;12.10;99.90
6110;DHT22;3085;49.444;11.054;2023-05-16T04:30:45;11.70;99.90
6110;DHT22;3085;49.444;11.054;2023-05-16T04:33:13;11.70;99.90
6110;DHT22;3085;49.444;11.054;2023-05-16T04:35:41;11.80;99.90
6110;DHT22;3085;49.444;11.054;2023-05-16T04:38:07;11.80;99.90
6110;DHT22;3085;49.444;11.054;2023-05-16T04:40:34;11.70;99.90
6110;DHT22;3085;49.444;11.054;2023-05-16T04:43:01;11.70;99.90
6110;DHT22;3085;49.444;11.054;2023-05-16T04:45:28;11.60;99.90
6110;DHT22;3085;49.444;11.054;2023-05-16T04:47:54;11.60;99.90
6110;DHT22;3085;49.444;11.054;2023-05-16T04:50:22;11.70;99.90
6110;DHT22;3085;49.444;11.054;2023-05-16T04:52:49;11.70;99.90
6110;DHT22;3085;49.444;11.054;2023-05-16T04:55:16;11.70;99.90
6110;DHT22;3085;49.444;11.054;2023-05-16T04:57:43;11.70;99.90
6110;DHT22;3085;49.444;11.054;2023-05-16T05:00:11;11.80;99.90
6110;DHT22;3085;49.444;11.054;2023-05-16T05:02:38;11.80;99.90
6110;DHT22;3085;49.444;11.054;2023-05-16T05:05:06;11.80;99.90
6110;DHT22;3085;49.444;11.054;2023-05-16T05:07:34;11.80;99.90
6110;DHT22;3085;49.444;11.054;2023-05-16T05:10:01;11.80;99.90
6110;DHT22;3085;49.444;11.054;2023-05-16T05:12:27;11.90;99.90
6110;DHT22;3085;49.444;11.054;2023-05-16T05:14:55;11.90;99.90
6110;DHT22;3085;49.444;11.054;2023-05-16T05:17:22;12.00;99.90
6110;DHT22;3085;49.444;11.054;2023-05-16T05:19:48;11.90;99.90
6110;DHT22;3085;49.444;11.054;2023-05-16T05:22:15;11.90;99.90
6110;DHT22;3085;49.444;11.054;2023-05-16T05:24:43;11.80;99.90
6110;DHT22;3085;49.444;11.054;2023-05-16T05:27:10;11.90;99.90
6110;DHT22;3085;49.444;11.054;2023-05-16T05:29:37;11.90;99.90
6110;DHT22;3085;49.444;11.054;2023-05-16T05:32:04;12.00;99.90
6110;DHT22;3085;49.444;11.054;2023-05-16T05:34:31;11.90;99.90
6110;DHT22;3085;49.444;11.054;2023-05-16T05:36:58;11.90;99.90
6110;DHT22;3085;49.444;11.054;2023-05-16T05:39:24;12.10;99.90
6110;DHT22;3085;49.444;11.054;2023-05-16T05:41:53;12.10;99.90
6110;DHT22;3085;49.444;11.054;2023-05-16T05:44:20;12.10;99.90
6110;DHT22;3085;49.444;11.054;2023-05-16T05:46:46;12.10;99.90
6110;DHT22;3085;49.444;11.054;2023-05-16T05:49:13;12.00;99.90
6110;DHT22;3085;49.444;11.054;2023-05-16T05:51:40;11.90;99.90
6110;DHT22;3085;49.444;11.054;2023-05-16T05:54:08;12.00;99.90
6110;DHT22;3085;49.444;11.054;2023-05-16T05:56:35;12.00;99.90
6110;DHT22;3085;49.444;11.054;2023-05-16T05:59:03;11.90;99.90
6110;DHT22;3085;49.444;11.054;2023-05-16T06:01:34;11.80;99.90
6110;DHT22;3085;49.444;11.054;2023-05-16T06:04:01;11.90;99.90
6110;DHT22;3085;49.444;11.054;2023-05-16T06:06:27;11.90;99.90
6110;DHT22;3085;49.444;11.054;2023-05-16T06:08:55;12.00;99.90
6110;DHT22;3085;49.444;11.054;2023-05-16T06:11:22;12.00;99.90
6110;DHT22;3085;49.444;11.054;2023-05-16T06:13:51;12.10;99.90
6110;DHT22;3085;49.444;11.054;2023-05-16T06:16:23;12.20;99.90
6110;DHT22;3085;49.444;11.054;2023-05-16T06:18:50;12.20;99.90
6110;DHT22;3085;49.444;11.054;2023-05-16T06:21:16;12.30;99.90
6110;DHT22;3085;49.444;11.054;2023-05-16T06:23:43;12.30;99.90
6110;DHT22;3085;49.444;11.054;2023-05-16T06:26:10;12.30;99.90
6110;DHT22;3085;49.444;11.054;2023-05-16T06:28:37;12.40;99.90
6110;DHT22;3085;49.444;11.054;2023-05-16T06:31:04;12.50;99.90
6110;DHT22;3085;49.444;11.054;2023-05-16T06:33:32;12.60;99.90
6110;DHT22;3085;49.444;11.054;2023-05-16T06:35:59;12.70;99.90
6110;DHT22;3085;49.444;11.054;2023-05-16T06:38:26;12.70;99.90
6110;DHT22;3085;49.444;11.054;2023-05-16T06:40:52;12.70;99.90
6110;DHT22;3085;49.444;11.054;2023-05-16T06:43:19;12.80;99.90
6110;DHT22;3085;49.444;11.054;2023-05-16T06:45:46;12.80;99.90
6110;DHT22;3085;49.444;11.054;2023-05-16T06:48:13;12.80;99.90
6110;DHT22;3085;49.444;11.054;2023-05-16T06:50:42;12.90;99.90
6110;DHT22;3085;49.444;11.054;2023-05-16T06:53:12;12.80;99.90
6110;DHT22;3085;49.444;11.054;2023-05-16T06:55:41;12.90;99.90
6110;DHT22;3085;49.444;11.054;2023-05-16T06:58:09;13.10;99.90
6110;DHT22;3085;49.444;11.054;2023-05-16T07:00:36;13.10;99.90
6110;DHT22;3085;49.444;11.054;2023-05-16T07:03:03;13.30;99.90
6110;DHT22;3085;49.444;11.054;2023-05-16T07:05:30;13.40;99.90
6110;DHT22;3085;49.444;11.054;2023-05-16T07:07:58;13.40;99.90
6110;DHT22;3085;49.444;11.054;2023-05-16T07:10:25;13.50;99.90
6110;DHT22;3085;49.444;11.054;2023-05-16T07:12:52;13.60;99.90
6110;DHT22;3085;49.444;11.054;2023-05-16T07:15:19;13.50;99.90
6110;DHT22;3085;49.444;11.054;2023-05-16T07:17:46;13.50;99.90
6110;DHT22;3085;49.444;11.054;2023-05-16T07:20:15;13.60;99.90
6110;DHT22;3085;49.444;11.054;2023-05-16T07:22:41;13.80;99.90
6110;DHT22;3085;49.444;11.054;2023-05-16T07:25:10;13.60;99.90
6110;DHT22;3085;49.444;11.054;2023-05-16T07:27:39;13.60;99.90
6110;DHT22;3085;49.444;11.054;2023-05-16T07:30:10;13.60;99.90
6110;DHT22;3085;49.444;11.054;2023-05-16T07:32:37;13.60;99.90
6110;DHT22;3085;49.444;11.054;2023-05-16T07:35:04;13.70;99.90
6110;DHT22;3085;49.444;11.054;2023-05-16T07:37:31;13.90;99.90
6110;DHT22;3085;49.444;11.054;2023-05-16T07:39:58;14.10;99.90
6110;DHT22;3085;49.444;11.054;2023-05-16T07:42:26;14.20;99.90
6110;DHT22;3085;49.444;11.054;2023-05-16T07:44:53;14.20;99.90
6110;DHT22;3085;49.444;11.054;2023-05-16T07:47:20;14.20;99.90
6110;DHT22;3085;49.444;11.054;2023-05-16T07:49:47;14.30;99.90
6110;DHT22;3085;49.444;11.054;2023-05-16T07:52:13;14.30;99.90
6110;DHT22;3085;49.444;11.054;2023-05-16T07:54:40;14.30;99.90
6110;DHT22;3085;49.444;11.054;2023-05-16T07:57:07;14.30;99.90
6110;DHT22;3085;49.444;11.054;2023-05-16T07:59:35;14.40;99.90
6110;DHT22;3085;49.444;11.054;2023-05-16T08:02:02;14.40;99.90
6110;DHT22;3085;49.444;11.054;2023-05-16T08:04:28;14.50;99.90
6110;DHT22;3085;49.444;11.054;2023-05-16T08:06:55;14.50;99.90
6110;DHT22;3085;49.444;11.054;2023-05-16T08:09:22;14.60;99.90
6110;DHT22;3085;49.444;11.054;2023-05-16T08:11:49;14.70;99.90
6110;DHT22;3085;49.444;11.054;2023-05-16T08:14:16;14.90;99.90
6110;DHT22;3085;49.444;11.054;2023-05-16T08:16:44;15.00;99.90
6110;DHT22;3085;49.444;11.054;2023-05-16T08:19:11;14.80;99.90
6110;DHT22;3085;49.444;11.054;2023-05-16T08:21:38;14.90;99.90
6110;DHT22;3085;49.444;11.054;2023-05-16T08:24:05;15.00;99.90
6110;DHT22;3085;49.444;11.054;2023-05-16T08:26:32;15.00;99.90
6110;DHT22;3085;49.444;11.054;2023-05-16T08:29:00;15.00;99.90
6110;DHT22;3085;49.444;11.054;2023-05-16T08:31:26;15.00;99.90
6110;DHT22;3085;49.444;11.054;2023-05-16T08:33:54;15.00;99.90
6110;DHT22;3085;49.444;11.054;2023-05-16T08:36:21;15.00;99.90
6110;DHT22;3085;49.444;11.054;2023-05-16T08:38:48;15.30;99.90
6110;DHT22;3085;49.444;11.054;2023-05-16T08:41:15;15.50;99.90
6110;DHT22;3085;49.444;11.054;2023-05-16T08:43:42;15.30;99.90
6110;DHT22;3085;49.444;11.054;2023-05-16T08:46:09;15.40;99.90
6110;DHT22;3085;49.444;11.054;2023-05-16T08:48:36;15.30;99.90
6110;DHT22;3085;49.444;11.054;2023-05-16T08:51:05;15.30;99.90
6110;DHT22;3085;49.444;11.054;2023-05-16T08:53:39;15.40;99.90
6110;DHT22;3085;49.444;11.054;2023-05-16T08:56:08;15.50;99.90
6110;DHT22;3085;49.444;11.054;2023-05-16T08:58:36;15.60;99.90
6110;DHT22;3085;49.444;11.054;2023-05-16T09:01:04;15.80;99.90
6110;DHT22;3085;49.444;11.054;2023-05-16T09:03:34;15.90;99.90
6110;DHT22;3085;49.444;11.054;2023-05-16T09:06:01;15.80;99.90
6110;DHT22;3085;49.444;11.054;2023-05-16T09:08:30;15.70;99.90
6110;DHT22;3085;49.444;11.054;2023-05-16T09:10:58;15.90;99.90
6110;DHT22;3085;49.444;11.054;2023-05-16T09:13:26;15.90;99.90
6110;DHT22;3085;49.444;11.054;2023-05-16T09:16:09;16.10;99.90
6110;DHT22;3085;49.444;11.054;2023-05-16T09:18:36;15.90;99.90
6110;DHT22;3085;49.444;11.054;2023-05-16T09:21:04;15.80;99.90
6110;DHT22;3085;49.444;11.054;2023-05-16T09:23:33;15.80;99.90
6110;DHT22;3085;49.444;11.054;2023-05-16T09:26:00;15.60;99.90
6110;DHT22;3085;49.444;11.054;2023-05-16T09:28:27;15.90;99.90
6110;DHT22;3085;49.444;11.054;2023-05-16T09:30:54;15.60;99.90
6110;DHT22;3085;49.444;11.054;2023-05-16T09:33:25;15.60;99.90
6110;DHT22;3085;49.444;11.054;2023-05-16T09:35:56;15.70;99.90
6110;DHT22;3085;49.444;11.054;2023-05-16T09:38:24;15.40;99.90
6110;DHT22;3085;49.444;11.054;2023-05-16T09:40:53;15.30;99.90
6110;DHT22;3085;49.444;11.054;2023-05-16T09:43:22;15.20;99.90
6110;DHT22;3085;49.444;11.054;2023-05-16T09:45:49;15.00;99.90
6110;DHT22;3085;49.444;11.054;2023-05-16T09:48:16;15.20;99.90
6110;DHT22;3085;49.444;11.054;2023-05-16T09:50:46;15.40;99.90
6110;DHT22;3085;49.444;11.054;2023-05-16T09:53:15;15.20;99.90
6110;DHT22;3085;49.444;11.054;2023-05-16T09:55:42;15.20;99.90
6110;DHT22;3085;49.444;11.054;2023-05-16T09:58:10;15.20;99.90
6110;DHT22;3085;49.444;11.054;2023-05-16T10:00:38;15.30;99.90
6110;DHT22;3085;49.444;11.054;2023-05-16T10:03:05;15.30;99.90
6110;DHT22;3085;49.444;11.054;2023-05-16T10:05:33;15.20;99.90
6110;DHT22;3085;49.444;11.054;2023-05-16T10:08:02;14.90;99.90
6110;DHT22;3085;49.444;11.054;2023-05-16T10:10:33;14.80;99.90
6110;DHT22;3085;49.444;11.054;2023-05-16T10:13:04;14.80;99.90
6110;DHT22;3085;49.444;11.054;2023-05-16T10:15:36;14.80;99.90
6110;DHT22;3085;49.444;11.054;2023-05-16T10:18:03;15.10;99.90
6110;DHT22;3085;49.444;11.054;2023-05-16T10:20:36;15.20;99.90
6110;DHT22;3085;49.444;11.054;2023-05-16T10:23:04;15.40;99.90
6110;DHT22;3085;49.444;11.054;2023-05-16T10:25:33;15.30;99.90
6110;DHT22;3085;49.444;11.054;2023-05-16T10:28:02;15.60;99.90
6110;DHT22;3085;49.444;11.054;2023-05-16T10:30:32;15.40;99.90
6110;DHT22;3085;49.444;11.054;2023-05-16T10:33:02;15.40;99.90
6110;DHT22;3085;49.444;11.054;2023-05-16T10:35:30;15.30;99.90
6110;DHT22;3085;49.444;11.054;2023-05-16T10:37:57;15.50;99.90
6110;DHT22;3085;49.444;11.054;2023-05-16T10:40:24;15.40;99.90
6110;DHT22;3085;49.444;11.054;2023-05-16T10:42:55;15.60;99.90
6110;DHT22;3085;49.444;11.054;2023-05-16T10:45:23;15.60;99.90
6110;DHT22;3085;49.444;11.054;2023-05-16T10:47:51;15.80;99.90
6110;DHT22;3085;49.444;11.054;2023-05-16T10:50:34;15.80;99.90
6110;DHT22;3085;49.444;11.054;2023-05-16T10:53:19;15.90;99.90
6110;DHT22;3085;49.444;11.054;2023-05-16T10:55:50;16.00;99.90
6110;DHT22;3085;49.444;11.054;2023-05-16T10:58:46;16.10;99.90
6110;DHT22;3085;49.444;11.054;2023-05-16T11:01:17;16.20;99.90
6110;DHT22;3085;49.444;11.054;2023-05-16T11:04:03;16.10;99.90
6110;DHT22;3085;49.444;11.054;2023-05-16T11:06:32;16.10;99.90
6110;DHT22;3085;49.444;11.054;2023-05-16T11:09:06;16.20;99.90
6110;DHT22;3085;49.444;11.054;2023-05-16T11:11:42;16.30;99.90
6110;DHT22;3085;49.444;11.054;2023-05-16T11:14:18;16.40;99.90
6110;DHT22;3085;49.444;11.054;2023-05-16T11:16:50;16.20;99.90
6110;DHT22;3085;49.444;11.054;2023-05-16T11:19:31;16.00;99.90
6110;DHT22;3085;49.444;11.054;2023-05-16T11:22:10;16.00;99.90
6110;DHT22;3085;49.444;11.054;2023-05-16T11:24:48;15.90;99.90
6110;DHT22;3085;49.444;11.054;2023-05-16T11:27:20;15.70;99.90
6110;DHT22;3085;49.444;11.054;2023-05-16T11:29:48;15.70;99.90
6110;DHT22;3085;49.444;11.054;2023-05-16T11:32:18;15.70;99.90
6110;DHT22;3085;49.444;11.054;2023-05-16T11:34:46;15.70;99.90
6110;DHT22;3085;49.444;11.054;2023-05-16T11:37:14;15.80;99.90
6110;DHT22;3085;49.444;11.054;2023-05-16T11:39:41;15.90;99.90
6110;DHT22;3085;49.444;11.054;2023-05-16T11:42:08;16.00;99.90
6110;DHT22;3085;49.444;11.054;2023-05-16T11:44:35;16.00;99.90
6110;DHT22;3085;49.444;11.054;2023-05-16T11:47:02;15.80;99.90
6110;DHT22;3085;49.444;11.054;2023-05-16T11:49:29;15.60;99.90
6110;DHT22;3085;49.444;11.054;2023-05-16T11:51:56;15.80;99.90
6110;DHT22;3085;49.444;11.054;2023-05-16T11:54:24;15.90;99.90
6110;DHT22;3085;49.444;11.054;2023-05-16T11:56:51;16.10;99.90
6110;DHT22;3085;49.444;11.054;2023-05-16T11:59:19;16.20;99.90
6110;DHT22;3085;49.444;11.054;2023-05-16T12:01:46;16.40;99.90
6110;DHT22;3085;49.444;11.054;2023-05-16T12:04:16;16.40;99.90
6110;DHT22;3085;49.444;11.054;2023-05-16T12:06:49;16.30;99.90
6110;DHT22;3085;49.444;11.054;2023-05-16T12:09:24;16.10;99.90
6110;DHT22;3085;49.444;11.054;2023-05-16T12:11:51;16.30;99.90
6110;DHT22;3085;49.444;11.054;2023-05-16T12:14:18;16.20;99.90
6110;DHT22;3085;49.444;11.054;2023-05-16T12:16:45;16.20;99.90
6110;DHT22;3085;49.444;11.054;2023-05-16T12:19:13;16.20;99.90
6110;DHT22;3085;49.444;11.054;2023-05-16T12:21:41;16.10;99.90
6110;DHT22;3085;49.444;11.054;2023-05-16T12:24:09;16.10;99.90
6110;DHT22;3085;49.444;11.054;2023-05-16T12:26:39;16.10;99.90
6110;DHT22;3085;49.444;11.054;2023-05-16T12:29:07;16.30;99.90
6110;DHT22;3085;49.444;11.054;2023-05-16T12:31:36;16.30;99.90
6110;DHT22;3085;49.444;11.054;2023-05-16T12:34:04;16.30;99.90
6110;DHT22;3085;49.444;11.054;2023-05-16T12:36:32;16.30;99.90
6110;DHT22;3085;49.444;11.054;2023-05-16T12:38:59;16.30;99.90
6110;DHT22;3085;49.444;11.054;2023-05-16T12:41:29;16.10;99.90
6110;DHT22;3085;49.444;11.054;2023-05-16T12:44:10;16.10;99.90
6110;DHT22;3085;49.444;11.054;2023-05-16T12:46:40;16.10;99.90
6110;DHT22;3085;49.444;11.054;2023-05-16T12:49:07;15.90;99.90
6110;DHT22;3085;49.444;11.054;2023-05-16T12:51:34;15.90;99.90
6110;DHT22;3085;49.444;11.054;2023-05-16T12:54:08;15.80;99.90
6110;DHT22;3085;49.444;11.054;2023-05-16T12:56:36;15.70;99.90
6110;DHT22;3085;49.444;11.054;2023-05-16T12:59:03;15.90;99.90
6110;DHT22;3085;49.444;11.054;2023-05-16T13:01:31;16.10;99.90
6110;DHT22;3085;49.444;11.054;2023-05-16T13:03:59;16.30;99.90
6110;DHT22;3085;49.444;11.054;2023-05-16T13:06:26;16.30;99.90
6110;DHT22;3085;49.444;11.054;2023-05-16T13:08:53;16.50;99.90
6110;DHT22;3085;49.444;11.054;2023-05-16T13:11:20;16.40;99.90
6110;DHT22;3085;49.444;11.054;2023-05-16T13:13:47;16.30;99.90
6110;DHT22;3085;49.444;11.054;2023-05-16T13:16:14;16.20;99.90
6110;DHT22;3085;49.444;11.054;2023-05-16T13:18:42;16.20;99.90
6110;DHT22;3085;49.444;11.054;2023-05-16T13:21:09;16.60;99.90
6110;DHT22;3085;49.444;11.054;2023-05-16T13:23:36;16.70;99.90
6110;DHT22;3085;49.444;11.054;2023-05-16T13:26:03;16.70;99.90
6110;DHT22;3085;49.444;11.054;2023-05-16T13:28:30;16.80;99.90
6110;DHT22;3085;49.444;11.054;2023-05-16T13:30:57;16.70;99.90
6110;DHT22;3085;49.444;11.054;2023-05-16T13:33:24;16.60;99.90
6110;DHT22;3085;49.444;11.054;2023-05-16T13:35:52;16.40;99.90
6110;DHT22;3085;49.444;11.054;2023-05-16T13:38:19;16.40;99.90
6110;DHT22;3085;49.444;11.054;2023-05-16T13:40:46;16.40;99.90
6110;DHT22;3085;49.444;11.054;2023-05-16T13:43:13;16.60;99.90
6110;DHT22;3085;49.444;11.054;2023-05-16T13:45:40;16.50;99.90
6110;DHT22;3085;49.444;11.054;2023-05-16T13:48:08;16.40;99.90
6110;DHT22;3085;49.444;11.054;2023-05-16T13:50:36;16.10;99.90
6110;DHT22;3085;49.444;11.054;2023-05-16T13:53:05;16.00;99.90
6110;DHT22;3085;49.444;11.054;2023-05-16T13:55:32;16.00;99.90
6110;DHT22;3085;49.444;11.054;2023-05-16T13:57:59;15.80;99.90
6110;DHT22;3085;49.444;11.054;2023-05-16T14:00:27;15.70;99.90
6110;DHT22;3085;49.444;11.054;2023-05-16T14:02:53;15.80;99.90
6110;DHT22;3085;49.444;11.054;2023-05-16T14:05:20;15.70;99.90
6110;DHT22;3085;49.444;11.054;2023-05-16T14:07:47;15.40;99.90
6110;DHT22;3085;49.444;11.054;2023-05-16T14:10:15;15.70;99.90
6110;DHT22;3085;49.444;11.054;2023-05-16T14:12:42;15.80;99.90
6110;DHT22;3085;49.444;11.054;2023-05-16T14:15:09;15.90;99.90
6110;DHT22;3085;49.444;11.054;2023-05-16T14:17:36;15.80;99.90
6110;DHT22;3085;49.444;11.054;2023-05-16T14:20:03;15.80;99.90
6110;DHT22;3085;49.444;11.054;2023-05-16T14:22:33;16.00;99.90
6110;DHT22;3085;49.444;11.054;2023-05-16T14:25:00;15.90;99.90
6110;DHT22;3085;49.444;11.054;2023-05-16T14:27:28;17.30;99.90
6110;DHT22;3085;49.444;11.054;2023-05-16T14:29:55;15.40;99.90
6110;DHT22;3085;49.444;11.054;2023-05-16T14:32:23;15.40;99.90
6110;DHT22;3085;49.444;11.054;2023-05-16T14:34:50;15.40;99.90
6110;DHT22;3085;49.444;11.054;2023-05-16T14:37:17;15.40;99.90
6110;DHT22;3085;49.444;11.054;2023-05-16T14:39:46;15.40;99.90
6110;DHT22;3085;49.444;11.054;2023-05-16T14:42:15;15.20;99.90
6110;DHT22;3085;49.444;11.054;2023-05-16T14:44:43;15.10;99.90
6110;DHT22;3085;49.444;11.054;2023-05-16T14:47:10;15.00;99.90
6110;DHT22;3085;49.444;11.054;2023-05-16T14:49:37;14.90;99.90
6110;DHT22;3085;49.444;11.054;2023-05-16T14:52:05;15.00;99.90
6110;DHT22;3085;49.444;11.054;2023-05-16T14:54:32;14.90;99.90
6110;DHT22;3085;49.444;11.054;2023-05-16T14:56:58;15.00;99.90
6110;DHT22;3085;49.444;11.054;2023-05-16T14:59:26;15.10;99.90
6110;DHT22;3085;49.444;11.054;2023-05-16T15:01:54;15.10;99.90
6110;DHT22;3085;49.444;11.054;2023-05-16T15:04:21;14.90;99.90
6110;DHT22;3085;49.444;11.054;2023-05-16T15:06:48;14.90;99.90
6110;DHT22;3085;49.444;11.054;2023-05-16T15:09:15;14.70;99.90
6110;DHT22;3085;49.444;11.054;2023-05-16T15:11:42;14.60;99.90
6110;DHT22;3085;49.444;11.054;2023-05-16T15:14:09;14.50;99.90
6110;DHT22;3085;49.444;11.054;2023-05-16T15:16:35;14.40;99.90
6110;DHT22;3085;49.444;11.054;2023-05-16T15:19:04;14.30;99.90
6110;DHT22;3085;49.444;11.054;2023-05-16T15:21:30;14.30;99.90
6110;DHT22;3085;49.444;11.054;2023-05-16T15:23:57;14.30;99.90
6110;DHT22;3085;49.444;11.054;2023-05-16T15:26:25;14.30;99.90
6110;DHT22;3085;49.444;11.054;2023-05-16T15:28:52;14.20;99.90
6110;DHT22;3085;49.444;11.054;2023-05-16T15:31:20;14.40;99.90
6110;DHT22;3085;49.444;11.054;2023-05-16T15:33:46;14.40;99.90
6110;DHT22;3085;49.444;11.054;2023-05-16T15:36:14;14.40;99.90
6110;DHT22;3085;49.444;11.054;2023-05-16T15:38:41;14.50;99.90
6110;DHT22;3085;49.444;11.054;2023-05-16T15:41:10;14.50;99.90
6110;DHT22;3085;49.444;11.054;2023-05-16T15:43:37;14.50;99.90
6110;DHT22;3085;49.444;11.054;2023-05-16T15:46:05;14.20;99.90
6110;DHT22;3085;49.444;11.054;2023-05-16T15:48:33;14.30;99.90
6110;DHT22;3085;49.444;11.054;2023-05-16T15:51:00;14.10;99.90